Terminal Aerodrome Forecast
Issued by NWS

Home | Current Version | Previous Version | Text Only | Print | Product List | Glossary On
Versions: 1 2 3 4 5 6 7 8 9 10 11 12 13 14 15 16 17 18 19 20 21 22 23 24 25 26
000
FTUS41 KBTV 031131
TAFSLK
TAF
KSLK 031131Z 0312/0412 29009G15KT 2SM -SHSN BR OVC018
      TEMPO 0315/0319 4SM -SHSN BR OVC022
     FM031900 29009G15KT 4SM -SHSN BR OVC022
     FM040000 30005KT 5SM -SHSN BR OVC025=

USA.gov is the U.S. government's official web portal to all federal, state and local government web resources and services.